Time;durP1;ratioP1;P1;durP2;ratioP2;P2;SDS_P1;SDS_P2;PMS_P1;PMS_P2;Temp;Humidity;BMP_temperature;BMP_pressure;BME280_temperature;BME280_humidity;BME280_pressure;Samples;Min_cycle;Max_cycle;Signal;HPM_P1;HPM_P2
2021/03/11 00:01:24;;;;;;;39.90;19.55;;;6.30;92.20;;;;;;5006514;28;20106;-69
2021/03/11 00:03:50;;;;;;;43.30;21.30;;;6.30;92.10;;;;;;5008053;28;20045;-68
2021/03/11 00:06:15;;;;;;;43.38;21.55;;;6.30;92.40;;;;;;5006069;28;20034;-70
2021/03/11 00:08:41;;;;;;;43.53;21.58;;;6.20;92.60;;;;;;5003746;28;20041;-69
2021/03/11 00:11:07;;;;;;;39.47;20.25;;;6.20;92.70;;;;;;5007723;28;20029;-69
2021/03/11 00:13:32;;;;;;;50.13;22.77;;;6.20;92.60;;;;;;5003149;28;20087;-69
2021/03/11 00:15:58;;;;;;;45.90;21.80;;;6.20;92.70;;;;;;5006766;28;20030;-69
2021/03/11 00:18:24;;;;;;;48.33;22.98;;;6.20;92.90;;;;;;4995956;28;20506;-69
2021/03/11 00:20:50;;;;;;;42.85;22.08;;;6.20;93.00;;;;;;5006343;28;20034;-69
2021/03/11 00:23:15;;;;;;;46.30;21.85;;;6.10;93.20;;;;;;5004826;28;20188;-69
2021/03/11 00:25:41;;;;;;;44.20;22.88;;;6.10;93.40;;;;;;5006749;28;20109;-69
2021/03/11 00:28:07;;;;;;;50.90;24.58;;;6.10;93.50;;;;;;5006385;28;20037;-67
2021/03/11 00:30:33;;;;;;;52.72;24.80;;;6.10;93.60;;;;;;5008467;28;20518;-68
2021/03/11 00:32:59;;;;;;;53.83;25.35;;;6.00;94.00;;;;;;5009163;28;20080;-71
2021/03/11 00:35:24;;;;;;;54.33;24.73;;;6.00;94.30;;;;;;5009253;28;20491;-69
2021/03/11 00:37:51;;;;;;;57.15;26.33;;;6.00;94.50;;;;;;5004276;28;20026;-70
2021/03/11 00:40:18;;;;;;;48.40;24.48;;;5.90;94.70;;;;;;5007884;28;20068;-70
2021/03/11 00:42:44;;;;;;;57.70;26.58;;;6.00;94.70;;;;;;5008937;28;20018;-70
2021/03/11 00:45:11;;;;;;;64.63;24.65;;;5.90;94.80;;;;;;5010014;28;20388;-70
2021/03/11 00:47:38;;;;;;;58.30;27.52;;;5.90;95.00;;;;;;5007665;28;20072;-70
2021/03/11 00:50:07;;;;;;;56.47;25.17;;;5.90;95.10;;;;;;5011712;28;20079;-69
2021/03/11 00:52:32;;;;;;;59.33;27.67;;;5.90;94.90;;;;;;5009361;28;20030;-70
2021/03/11 00:54:58;;;;;;;60.38;27.58;;;5.90;95.10;;;;;;5006986;28;20097;-70
2021/03/11 00:57:24;;;;;;;56.75;26.90;;;5.80;95.40;;;;;;5006943;28;20024;-70
2021/03/11 00:59:49;;;;;;;72.10;29.38;;;5.80;95.50;;;;;;5007843;28;20112;-70
2021/03/11 01:02:15;;;;;;;59.50;27.75;;;5.80;95.70;;;;;;5008430;28;20044;-70
2021/03/11 01:04:41;;;;;;;54.70;26.05;;;5.80;95.40;;;;;;5012447;28;20034;-70
2021/03/11 01:07:07;;;;;;;52.00;24.77;;;5.80;95.50;;;;;;5015702;28;20029;-69
2021/03/11 01:09:32;;;;;;;48.85;24.58;;;5.80;95.30;;;;;;5009086;28;20025;-69
2021/03/11 01:11:58;;;;;;;55.50;25.50;;;5.80;95.60;;;;;;5005917;28;20484;-69
2021/03/11 01:14:24;;;;;;;52.88;26.02;;;5.80;95.50;;;;;;5014692;28;20041;-69
2021/03/11 01:16:51;;;;;;;55.55;25.30;;;5.70;95.70;;;;;;5007858;28;20125;-69
2021/03/11 01:19:17;;;;;;;55.88;25.90;;;5.70;95.90;;;;;;5007953;28;20116;-69
2021/03/11 01:21:43;;;;;;;58.65;26.35;;;5.70;96.10;;;;;;5007260;28;20026;-69
2021/03/11 01:24:09;;;;;;;54.67;25.80;;;5.70;96.00;;;;;;5008179;28;20034;-69
2021/03/11 01:26:34;;;;;;;67.18;27.60;;;5.70;96.20;;;;;;5005300;28;20029;-69
2021/03/11 01:29:00;;;;;;;58.72;26.85;;;5.60;96.40;;;;;;5009000;28;20029;-69
2021/03/11 01:31:28;;;;;;;60.40;26.60;;;5.60;96.50;;;;;;5007171;28;20491;-70
2021/03/11 01:33:54;;;;;;;62.55;28.17;;;5.60;96.60;;;;;;5007728;28;20069;-70
2021/03/11 01:36:20;;;;;;;65.35;29.15;;;5.50;96.80;;;;;;5012978;28;20030;-70
2021/03/11 01:38:46;;;;;;;71.35;30.65;;;5.50;97.00;;;;;;5010109;28;20076;-70
2021/03/11 01:41:11;;;;;;;65.00;29.13;;;5.50;97.10;;;;;;5004851;28;20034;-71
2021/03/11 01:43:37;;;;;;;58.58;27.30;;;5.50;97.10;;;;;;5008824;28;20276;-70
2021/03/11 01:46:03;;;;;;;56.28;26.23;;;5.50;97.10;;;;;;5006406;28;20483;-70
2021/03/11 01:48:28;;;;;;;60.15;26.05;;;5.50;97.00;;;;;;5005116;28;20029;-70
2021/03/11 01:50:54;;;;;;;57.00;25.50;;;5.50;97.00;;;;;;5006733;28;20037;-70
2021/03/11 01:53:20;;;;;;;56.13;25.30;;;5.50;97.10;;;;;;5008758;28;20083;-70
2021/03/11 01:55:45;;;;;;;59.28;26.90;;;5.50;97.10;;;;;;5006625;28;20038;-70
2021/03/11 01:58:12;;;;;;;49.47;23.73;;;5.50;97.10;;;;;;5011474;28;20399;-70
2021/03/11 02:00:38;;;;;;;57.17;24.58;;;5.40;97.00;;;;;;5004271;28;20026;-70
2021/03/11 02:03:04;;;;;;;58.33;25.73;;;5.40;97.20;;;;;;5007283;28;20030;-70
2021/03/11 02:05:30;;;;;;;67.40;25.77;;;5.40;97.30;;;;;;5008260;28;20129;-70
2021/03/11 02:07:56;;;;;;;65.57;27.77;;;5.40;97.50;;;;;;5005510;28;20120;-70
2021/03/11 02:10:25;;;;;;;61.35;24.48;;;5.40;97.60;;;;;;5007140;28;20029;-70
2021/03/11 02:13:15;;;;;;;55.03;24.27;;;5.40;97.30;;;;;;5006355;28;20026;-70
2021/03/11 02:15:49;;;;;;;48.92;21.48;;;5.40;97.40;;;;;;5006811;28;20022;-71
2021/03/11 02:18:21;;;;;;;53.05;23.23;;;5.40;97.50;;;;;;5005460;28;21116;-70
2021/03/11 02:20:55;;;;;;;52.33;23.88;;;5.40;97.50;;;;;;5008129;28;20477;-70
2021/03/11 02:23:58;;;;;;;55.17;25.38;;;5.40;97.50;;;;;;5006473;28;20408;-70
2021/03/11 02:26:52;;;;;;;64.50;25.50;;;5.40;97.40;;;;;;5008019;28;20112;-70
2021/03/11 02:29:25;;;;;;;55.55;25.20;;;5.40;97.60;;;;;;5007897;28;20434;-71
2021/03/11 02:31:54;;;;;;;59.35;25.13;;;5.40;97.70;;;;;;5008046;28;20037;-70
2021/03/11 02:34:24;;;;;;;66.72;26.08;;;5.40;97.70;;;;;;5004829;28;20029;-70
2021/03/11 02:36:54;;;;;;;58.33;25.83;;;5.40;97.80;;;;;;5007236;28;20672;-70
2021/03/11 02:39:23;;;;;;;60.72;25.38;;;5.30;97.80;;;;;;5007585;28;20030;-70
2021/03/11 02:41:51;;;;;;;65.82;26.92;;;5.30;97.90;;;;;;5008153;28;20033;-70
2021/03/11 02:44:17;;;;;;;60.22;24.60;;;5.30;97.90;;;;;;5006395;28;20038;-70
2021/03/11 02:46:43;;;;;;;68.93;26.40;;;5.40;98.00;;;;;;5004274;28;20045;-69
2021/03/11 02:49:09;;;;;;;65.50;26.40;;;5.40;98.10;;;;;;5005753;28;20137;-70
2021/03/11 02:51:37;;;;;;;61.67;26.63;;;5.40;98.10;;;;;;5006628;28;20460;-70
2021/03/11 02:54:02;;;;;;;61.25;25.58;;;5.40;98.10;;;;;;5005589;28;20026;-70
2021/03/11 02:56:28;;;;;;;71.43;27.95;;;5.40;98.20;;;;;;5004148;28;20041;-70
2021/03/11 02:58:55;;;;;;;61.15;25.65;;;5.40;98.30;;;;;;5008683;28;20038;-70
2021/03/11 03:01:22;;;;;;;61.33;25.95;;;5.40;98.00;;;;;;5006560;28;20030;-70
2021/03/11 03:03:50;;;;;;;65.65;27.73;;;5.40;98.10;;;;;;5009182;28;20030;-70
2021/03/11 03:06:17;;;;;;;71.88;27.65;;;5.40;98.20;;;;;;5005878;28;20030;-70
2021/03/11 03:08:44;;;;;;;68.57;28.00;;;5.40;98.20;;;;;;5008913;28;20033;-70
2021/03/11 03:11:12;;;;;;;60.63;26.27;;;5.40;98.30;;;;;;5009303;28;20112;-70
2021/03/11 03:13:40;;;;;;;64.82;26.45;;;5.40;98.30;;;;;;5009508;28;20479;-70
2021/03/11 03:16:07;;;;;;;62.15;25.27;;;5.40;98.30;;;;;;5008873;28;20025;-70
2021/03/11 03:18:34;;;;;;;71.45;27.65;;;5.40;98.30;;;;;;5008450;28;20029;-70
2021/03/11 03:21:08;;;;;;;77.80;28.33;;;5.40;98.30;;;;;;5007784;28;20030;-69
2021/03/11 03:23:34;;;;;;;68.55;27.23;;;5.40;98.40;;;;;;5009505;28;20033;-70
2021/03/11 03:26:00;;;;;;;63.22;26.13;;;5.40;98.40;;;;;;5008767;28;20041;-71
2021/03/11 03:28:26;;;;;;;64.72;25.10;;;5.50;98.40;;;;;;5008453;28;20101;-70
2021/03/11 03:30:51;;;;;;;59.28;25.58;;;5.50;98.30;;;;;;5009348;28;20034;-71
2021/03/11 03:33:17;;;;;;;59.78;25.38;;;5.50;98.40;;;;;;5008042;28;20030;-70
2021/03/11 03:35:43;;;;;;;57.10;24.15;;;5.50;98.50;;;;;;5007942;28;20372;-70
2021/03/11 03:38:09;;;;;;;56.13;22.85;;;5.50;98.60;;;;;;5007872;28;20080;-70
2021/03/11 03:40:36;;;;;;;47.58;22.83;;;5.50;98.30;;;;;;5008506;28;20061;-70
2021/03/11 03:43:23;;;;;;;59.35;25.73;;;5.60;98.30;;;;;;5009005;28;20139;-70
2021/03/11 03:45:56;;;;;;;59.13;24.52;;;5.60;98.40;;;;;;5007464;28;20116;-70
2021/03/11 03:48:39;;;;;;;53.28;23.75;;;5.60;98.40;;;;;;5009635;28;20061;-70
2021/03/11 03:51:06;;;;;;;58.00;23.30;;;5.60;98.40;;;;;;5005624;28;20022;-69
2021/03/11 03:53:39;;;;;;;53.38;23.02;;;5.60;98.50;;;;;;5009847;28;20041;-70
2021/03/11 03:56:18;;;;;;;50.10;22.60;;;5.60;98.50;;;;;;5008123;28;20026;-70
2021/03/11 03:58:46;;;;;;;45.33;21.40;;;5.60;98.50;;;;;;5009301;28;20026;-70
2021/03/11 04:01:13;;;;;;;55.90;23.15;;;5.60;98.50;;;;;;5008650;28;20034;-70
2021/03/11 04:03:39;;;;;;;56.45;22.90;;;5.60;98.50;;;;;;5008639;28;20033;-70
2021/03/11 04:06:09;;;;;;;48.92;22.83;;;5.60;98.50;;;;;;5008269;28;20038;-70
2021/03/11 04:08:36;;;;;;;44.20;20.90;;;5.60;98.60;;;;;;5005299;28;20037;-70
2021/03/11 04:11:03;;;;;;;50.08;22.25;;;5.70;98.60;;;;;;5008923;28;20101;-70
2021/03/11 04:13:31;;;;;;;44.13;20.45;;;5.70;98.50;;;;;;5009016;28;20029;-70
2021/03/11 04:15:58;;;;;;;50.97;22.67;;;5.70;98.50;;;;;;5005709;28;20488;-70
2021/03/11 04:18:24;;;;;;;49.50;22.42;;;5.70;98.50;;;;;;5007963;28;20049;-70
2021/03/11 04:20:50;;;;;;;49.10;21.50;;;5.70;98.50;;;;;;5007538;28;20041;-70
2021/03/11 04:23:17;;;;;;;49.15;21.70;;;5.70;98.60;;;;;;5007884;28;20034;-70
2021/03/11 04:25:43;;;;;;;46.40;21.50;;;5.70;98.60;;;;;;5007508;28;20065;-70
2021/03/11 04:28:09;;;;;;;49.63;20.70;;;5.70;98.60;;;;;;5007527;28;20124;-70
2021/03/11 04:30:36;;;;;;;43.70;20.20;;;5.70;98.50;;;;;;5008025;28;20114;-70
2021/03/11 04:33:02;;;;;;;41.25;19.83;;;5.70;98.50;;;;;;5008766;28;20037;-70
2021/03/11 04:35:28;;;;;;;38.55;19.40;;;5.70;98.50;;;;;;5007879;28;20523;-70
2021/03/11 04:37:54;;;;;;;43.92;20.95;;;5.70;98.50;;;;;;5007060;28;20029;-70
2021/03/11 04:40:20;;;;;;;44.72;19.75;;;5.70;98.50;;;;;;5007789;28;20018;-70
2021/03/11 04:42:47;;;;;;;42.53;20.48;;;5.80;98.50;;;;;;5008183;28;20045;-70
2021/03/11 04:45:13;;;;;;;48.58;21.60;;;5.80;98.40;;;;;;5008007;28;20397;-70
2021/03/11 04:47:39;;;;;;;44.33;20.27;;;5.70;98.50;;;;;;5009274;28;20026;-70
2021/03/11 04:50:07;;;;;;;47.40;22.33;;;5.80;98.80;;;;;;5007218;28;20496;-70
2021/03/11 04:52:35;;;;;;;41.00;20.17;;;5.80;98.50;;;;;;5009180;28;20034;-70
2021/03/11 04:55:01;;;;;;;40.88;19.30;;;5.80;98.60;;;;;;5008167;28;20033;-70
2021/03/11 04:57:28;;;;;;;45.90;21.23;;;5.80;98.60;;;;;;5005361;28;20496;-70
2021/03/11 04:59:57;;;;;;;44.35;20.80;;;5.80;98.60;;;;;;5014003;28;20048;-70
2021/03/11 05:02:26;;;;;;;39.42;19.98;;;5.80;98.60;;;;;;5005766;28;20372;-70
2021/03/11 05:04:53;;;;;;;44.05;19.48;;;5.80;98.60;;;;;;5007380;28;20112;-69
2021/03/11 05:07:19;;;;;;;45.63;20.33;;;5.80;98.50;;;;;;5007711;28;20038;-70
2021/03/11 05:09:44;;;;;;;39.40;18.23;;;5.80;98.60;;;;;;5007306;28;20026;-70
2021/03/11 05:12:10;;;;;;;39.90;20.25;;;5.80;98.60;;;;;;5007199;28;20518;-71
2021/03/11 05:14:36;;;;;;;38.40;19.35;;;5.80;98.70;;;;;;5008083;28;20105;-70
2021/03/11 05:17:02;;;;;;;48.08;21.77;;;5.80;98.70;;;;;;5006411;28;20105;-70
2021/03/11 05:19:27;;;;;;;47.30;20.42;;;5.80;98.80;;;;;;5006176;28;20068;-70
2021/03/11 05:21:53;;;;;;;42.92;19.45;;;5.80;98.70;;;;;;5009750;28;20030;-69
2021/03/11 05:24:19;;;;;;;48.28;20.20;;;5.80;98.80;;;;;;5006373;28;20455;-70
2021/03/11 05:26:44;;;;;;;43.88;20.05;;;5.80;98.80;;;;;;5009499;28;20041;-69
2021/03/11 05:29:10;;;;;;;42.75;19.13;;;5.80;98.70;;;;;;5008968;28;20041;-70
2021/03/11 05:31:36;;;;;;;41.53;19.30;;;5.80;98.80;;;;;;5010408;28;20041;-70
2021/03/11 05:34:02;;;;;;;43.55;18.77;;;5.80;98.80;;;;;;5010190;28;20041;-70
2021/03/11 05:36:27;;;;;;;48.13;19.83;;;5.80;98.80;;;;;;5006709;28;20033;-70
2021/03/11 05:38:53;;;;;;;47.80;19.42;;;5.80;98.80;;;;;;5008773;28;20495;-70
2021/03/11 05:41:20;;;;;;;51.70;21.05;;;5.80;98.90;;;;;;5010803;28;20064;-70
2021/03/11 05:43:46;;;;;;;47.42;19.60;;;5.80;98.90;;;;;;5010261;28;20407;-70
2021/03/11 05:46:13;;;;;;;51.85;21.42;;;5.80;99.00;;;;;;5011850;28;20026;-70
2021/03/11 05:48:43;;;;;;;42.85;19.85;;;5.90;99.10;;;;;;5006396;28;20075;-70
2021/03/11 05:51:09;;;;;;;42.80;18.90;;;5.80;99.10;;;;;;5010618;28;20026;-72
2021/03/11 05:53:36;;;;;;;42.97;18.85;;;5.90;99.10;;;;;;5012516;28;20044;-72
2021/03/11 05:56:03;;;;;;;44.38;19.08;;;5.90;99.10;;;;;;5010472;28;20488;-71
2021/03/11 05:58:28;;;;;;;45.65;19.77;;;5.90;99.10;;;;;;5010905;28;20450;-71
2021/03/11 06:00:54;;;;;;;44.60;19.25;;;5.90;99.00;;;;;;5011358;28;20037;-71
2021/03/11 06:03:24;;;;;;;42.70;19.58;;;5.90;99.10;;;;;;5011191;28;20110;-71
2021/03/11 06:05:50;;;;;;;41.83;17.77;;;5.90;99.10;;;;;;5009257;28;20034;-71
2021/03/11 06:08:21;;;;;;;40.08;18.75;;;6.00;99.10;;;;;;5010826;28;20473;-70
2021/03/11 06:10:47;;;;;;;41.53;19.20;;;5.90;99.00;;;;;;5011079;28;20121;-71
2021/03/11 06:13:13;;;;;;;40.58;17.65;;;5.90;99.10;;;;;;5010457;28;20527;-72
2021/03/11 06:15:41;;;;;;;37.88;17.23;;;6.00;99.10;;;;;;5008743;28;20105;-71
2021/03/11 06:18:08;;;;;;;40.67;16.58;;;6.00;99.20;;;;;;5011000;28;20032;-71
2021/03/11 06:20:34;;;;;;;36.65;17.13;;;6.00;99.20;;;;;;5008554;28;20024;-70
2021/03/11 06:23:00;;;;;;;34.38;16.05;;;6.00;99.20;;;;;;5009033;28;20629;-71
2021/03/11 06:25:27;;;;;;;32.67;15.93;;;6.00;99.20;;;;;;5012063;28;20504;-71
2021/03/11 06:27:53;;;;;;;35.90;16.75;;;6.00;99.10;;;;;;5012059;28;20032;-73
2021/03/11 06:30:28;;;;;;;32.90;16.23;;;6.00;99.10;;;;;;5006640;28;20622;-72
2021/03/11 06:32:55;;;;;;;35.80;16.48;;;6.10;99.20;;;;;;5011018;28;20021;-72
2021/03/11 06:35:21;;;;;;;36.05;17.50;;;6.10;99.10;;;;;;5007167;28;20021;-72
2021/03/11 06:37:50;;;;;;;32.35;16.60;;;6.10;99.10;;;;;;5008224;28;20026;-72
2021/03/11 06:40:18;;;;;;;33.38;16.02;;;6.10;99.10;;;;;;5002312;28;20030;-71
2021/03/11 06:42:45;;;;;;;31.63;16.23;;;6.20;99.10;;;;;;5012516;28;20036;-71
2021/03/11 06:45:19;;;;;;;37.47;17.00;;;6.20;99.10;;;;;;5010595;28;20022;-71
2021/03/11 06:47:46;;;;;;;31.58;16.65;;;6.20;99.00;;;;;;5009515;28;20022;-72
2021/03/11 06:50:12;;;;;;;32.20;15.70;;;6.20;99.10;;;;;;5006937;28;20121;-72
2021/03/11 06:52:37;;;;;;;33.90;16.65;;;6.20;99.10;;;;;;5008343;28;20054;-72
2021/03/11 06:55:07;;;;;;;32.42;16.55;;;6.30;99.20;;;;;;5008914;28;20092;-72
2021/03/11 06:57:42;;;;;;;31.42;15.63;;;6.30;99.10;;;;;;5009022;28;20022;-72
2021/03/11 07:00:18;;;;;;;27.40;14.38;;;6.40;99.00;;;;;;5008407;28;20038;-72
2021/03/11 07:02:50;;;;;;;26.15;14.23;;;6.30;99.00;;;;;;5009080;28;20043;-72
2021/03/11 07:05:27;;;;;;;31.45;15.52;;;6.40;99.00;;;;;;5011962;28;20541;-72
2021/03/11 07:08:21;;;;;;;28.70;14.52;;;6.40;99.10;;;;;;5005905;28;20045;-75
2021/03/11 07:10:47;;;;;;;30.35;15.27;;;6.40;99.10;;;;;;4980103;28;20034;-72
2021/03/11 07:13:14;;;;;;;30.23;15.75;;;6.40;99.10;;;;;;5008103;28;20602;-72
2021/03/11 07:15:40;;;;;;;28.38;14.70;;;6.40;99.00;;;;;;5007007;28;20017;-72
2021/03/11 07:18:21;;;;;;;26.70;14.48;;;6.50;99.10;;;;;;5010990;28;20546;-72
2021/03/11 07:20:47;;;;;;;24.83;13.57;;;6.50;99.00;;;;;;5008870;28;20526;-72
2021/03/11 07:23:16;;;;;;;25.38;14.00;;;6.60;99.00;;;;;;5010111;28;20034;-71
2021/03/11 07:25:44;;;;;;;28.85;13.82;;;6.60;98.90;;;;;;5008576;28;20148;-72
2021/03/11 07:28:21;;;;;;;26.45;14.02;;;6.70;98.90;;;;;;5007257;28;20064;-72
2021/03/11 07:30:58;;;;;;;27.80;14.60;;;6.60;99.00;;;;;;5011846;28;20034;-72
2021/03/11 07:33:26;;;;;;;27.13;13.93;;;6.70;99.10;;;;;;5000751;28;20157;-72
2021/03/11 07:35:57;;;;;;;26.95;14.57;;;6.70;99.00;;;;;;5009475;28;20030;-73
2021/03/11 07:38:24;;;;;;;;;;;6.70;99.00;;;;;;5006642;28;20026;-72
2021/03/11 07:40:52;;;;;;;23.38;12.82;;;6.80;99.10;;;;;;5008468;28;19909;-72
2021/03/11 07:43:20;;;;;;;25.05;14.13;;;6.90;98.90;;;;;;5014913;28;20030;-73
2021/03/11 07:45:46;;;;;;;20.95;12.93;;;7.00;98.90;;;;;;5009609;28;20533;-72
2021/03/11 07:48:13;;;;;;;25.55;12.85;;;7.10;98.70;;;;;;5008754;28;20060;-73
2021/03/11 07:50:44;;;;;;;23.42;13.48;;;7.10;98.60;;;;;;5007364;28;20037;-72
2021/03/11 07:53:10;;;;;;;24.40;13.05;;;7.10;98.60;;;;;;5007751;28;20129;-71
2021/03/11 07:55:37;;;;;;;31.10;15.40;;;7.20;98.70;;;;;;5013794;28;20022;-72
2021/03/11 07:58:05;;;;;;;24.95;14.70;;;7.20;98.70;;;;;;5011318;28;20061;-72
2021/03/11 08:00:31;;;;;;;28.30;14.27;;;7.20;98.80;;;;;;5010511;28;20022;-72
2021/03/11 08:03:26;;;;;;;24.08;13.70;;;7.20;98.80;;;;;;5009527;28;20049;-72
2021/03/11 08:05:52;;;;;;;27.48;14.50;;;7.20;98.70;;;;;;5008595;28;20419;-73
2021/03/11 08:08:25;;;;;;;24.05;12.85;;;7.20;98.90;;;;;;5005332;28;20053;-72
2021/03/11 08:11:08;;;;;;;24.77;12.95;;;7.20;98.80;;;;;;5007651;28;20018;-73
2021/03/11 08:13:39;;;;;;;24.27;12.73;;;7.30;98.80;;;;;;5007975;28;20018;-72
2021/03/11 08:16:13;;;;;;;25.27;13.00;;;7.30;98.80;;;;;;5009564;28;20030;-73
2021/03/11 08:18:45;;;;;;;24.65;13.02;;;7.40;98.70;;;;;;5011876;28;20045;-72
2021/03/11 08:21:25;;;;;;;23.25;13.82;;;7.40;98.70;;;;;;5006480;28;20038;-72
2021/03/11 08:23:52;;;;;;;23.60;13.90;;;7.40;98.70;;;;;;5005730;28;20045;-72
2021/03/11 08:26:44;;;;;;;24.15;13.38;;;7.40;98.70;;;;;;5010889;28;20038;-73
2021/03/11 08:29:36;;;;;;;26.00;13.43;;;7.40;98.80;;;;;;5008941;28;20045;-74
2021/03/11 08:32:01;;;;;;;22.33;12.80;;;7.50;98.80;;;;;;5001755;28;20061;-68
2021/03/11 08:34:33;;;;;;;22.83;12.85;;;7.50;98.70;;;;;;5004585;28;20038;-68
2021/03/11 08:37:18;;;;;;;24.55;14.30;;;7.60;98.80;;;;;;5004995;28;20034;-68
2021/03/11 08:39:44;;;;;;;19.10;12.27;;;7.70;98.80;;;;;;5003822;28;20034;-68
2021/03/11 08:42:49;;;;;;;24.42;13.30;;;7.70;98.40;;;;;;5003954;28;20136;-68
2021/03/11 08:45:35;;;;;;;18.35;12.15;;;7.70;98.40;;;;;;5004265;28;20029;-69
2021/03/11 08:48:14;;;;;;;23.27;12.88;;;7.70;98.60;;;;;;5003959;28;20054;-68
2021/03/11 08:50:48;;;;;;;25.33;13.63;;;7.70;98.70;;;;;;5004101;28;20042;-69
2021/03/11 08:53:35;;;;;;;21.02;12.63;;;7.60;98.70;;;;;;5005806;28;20037;-68
2021/03/11 08:56:01;;;;;;;21.70;13.38;;;7.80;99.10;;;;;;5004937;28;20045;-69
2021/03/11 08:58:28;;;;;;;17.80;11.82;;;7.90;98.80;;;;;;5004416;28;20090;-67
2021/03/11 09:00:56;;;;;;;22.33;12.68;;;7.90;98.40;;;;;;5005558;28;20324;-69
2021/03/11 09:03:39;;;;;;;19.65;12.38;;;7.90;98.40;;;;;;5011337;28;20060;-68
2021/03/11 09:06:09;;;;;;;20.20;11.88;;;7.90;98.40;;;;;;5006460;28;20688;-67
2021/03/11 09:08:44;;;;;;;17.23;12.10;;;7.90;98.40;;;;;;5007945;28;20065;-68
2021/03/11 09:11:12;;;;;;;20.63;11.98;;;7.90;98.60;;;;;;5010185;28;20371;-67
2021/03/11 09:13:42;;;;;;;19.83;12.07;;;8.00;98.50;;;;;;5009257;28;20056;-67
2021/03/11 09:16:08;;;;;;;20.95;13.18;;;8.00;98.40;;;;;;5009047;28;20346;-68
2021/03/11 09:18:35;;;;;;;19.52;12.40;;;8.00;98.60;;;;;;5011554;28;20045;-69
2021/03/11 09:21:03;;;;;;;21.33;12.88;;;8.00;98.60;;;;;;5010619;28;20021;-67
2021/03/11 09:23:42;;;;;;;20.48;12.30;;;8.10;98.50;;;;;;5007126;28;20041;-68
2021/03/11 09:26:29;;;;;;;19.52;11.65;;;8.10;98.60;;;;;;5008736;28;20034;-69
2021/03/11 09:28:56;;;;;;;19.13;10.88;;;8.20;98.10;;;;;;5007718;28;20257;-70
2021/03/11 09:31:26;;;;;;;18.45;11.07;;;8.20;98.20;;;;;;5009553;28;20030;-68
2021/03/11 09:33:54;;;;;;;19.87;11.43;;;8.20;98.30;;;;;;5008039;28;20045;-68
2021/03/11 09:36:20;;;;;;;19.08;10.80;;;8.30;98.30;;;;;;5007677;28;20034;-69
2021/03/11 09:38:47;;;;;;;21.25;12.13;;;8.40;98.10;;;;;;4998609;28;20033;-68
2021/03/11 09:41:13;;;;;;;19.35;12.98;;;8.50;98.10;;;;;;5004164;28;20034;-69
2021/03/11 09:43:41;;;;;;;17.13;10.68;;;8.60;98.30;;;;;;5006712;28;20060;-69
2021/03/11 09:46:15;;;;;;;103.88;52.00;;;8.70;98.10;;;;;;5006709;28;20038;-68
2021/03/11 09:48:52;;;;;;;127.70;71.45;;;8.70;98.20;;;;;;5006526;28;20423;-67
2021/03/11 09:51:21;;;;;;;54.35;36.67;;;8.80;98.00;;;;;;5007939;28;20110;-68
2021/03/11 09:53:49;;;;;;;18.05;10.98;;;9.00;97.70;;;;;;5006468;28;20045;-68
2021/03/11 09:56:26;;;;;;;14.65;9.65;;;9.10;97.00;;;;;;5007745;28;20030;-67
2021/03/11 09:59:04;;;;;;;14.98;9.68;;;9.20;96.60;;;;;;5007416;28;20545;-67
2021/03/11 10:01:31;;;;;;;15.45;8.40;;;9.30;96.70;;;;;;5004670;28;20037;-68
2021/03/11 10:03:59;;;;;;;11.57;7.88;;;9.40;96.50;;;;;;5008478;28;20037;-68
2021/03/11 10:06:26;;;;;;;13.65;8.45;;;9.60;95.90;;;;;;5008389;28;20033;-67
2021/03/11 10:08:58;;;;;;;13.63;9.35;;;9.60;95.90;;;;;;5007334;28;20040;-69
2021/03/11 10:11:33;;;;;;;11.98;7.97;;;9.70;96.00;;;;;;5009008;28;20633;-68
2021/03/11 10:14:02;;;;;;;12.98;7.95;;;9.70;95.90;;;;;;5008923;28;20596;-68
2021/03/11 10:16:43;;;;;;;11.05;7.30;;;9.80;95.60;;;;;;5008220;28;20034;-69
2021/03/11 10:19:12;;;;;;;16.00;7.97;;;9.90;94.70;;;;;;5009094;28;20117;-68
2021/03/11 10:21:46;;;;;;;12.35;6.97;;;10.00;95.40;;;;;;5004998;28;20506;-68
2021/03/11 10:24:13;;;;;;;10.48;6.63;;;10.20;94.10;;;;;;5008949;28;20129;-68
2021/03/11 10:26:40;;;;;;;10.18;6.22;;;10.20;94.10;;;;;;5006241;28;20079;-68
2021/03/11 10:29:07;;;;;;;11.60;5.95;;;10.30;94.20;;;;;;5006576;28;20088;-68
2021/03/11 10:31:33;;;;;;;12.05;7.05;;;10.30;93.50;;;;;;5007660;28;20185;-67
2021/03/11 10:34:05;;;;;;;12.00;6.95;;;10.30;93.80;;;;;;5007411;28;20029;-68
2021/03/11 10:36:31;;;;;;;11.35;6.85;;;10.40;93.30;;;;;;5008148;28;20029;-68
2021/03/11 10:39:12;;;;;;;11.95;6.70;;;10.50;93.40;;;;;;5009832;28;20561;-67
2021/03/11 10:41:54;;;;;;;9.97;6.20;;;10.40;93.60;;;;;;5009239;28;20124;-67
2021/03/11 10:44:19;;;;;;;13.27;6.07;;;10.40;92.80;;;;;;5010329;28;20292;-67
2021/03/11 10:46:48;;;;;;;11.52;5.72;;;10.30;92.70;;;;;;5008092;28;20029;-69
2021/03/11 10:49:39;;;;;;;12.30;6.63;;;10.40;92.30;;;;;;5009613;28;20026;-68
2021/03/11 10:52:05;;;;;;;13.35;6.55;;;10.40;92.90;;;;;;5014804;28;20025;-69
2021/03/11 10:54:32;;;;;;;7.55;5.35;;;10.30;92.60;;;;;;5009449;28;21845;-68
2021/03/11 10:57:12;;;;;;;12.23;5.68;;;10.20;92.50;;;;;;5008868;28;20033;-70
2021/03/11 10:59:59;;;;;;;13.88;5.63;;;10.30;91.50;;;;;;5001709;28;20034;-69
2021/03/11 11:02:28;;;;;;;11.18;5.07;;;10.20;93.10;;;;;;5003047;28;20034;-67
2021/03/11 11:04:55;;;;;;;7.78;4.70;;;10.20;93.20;;;;;;4999246;28;20033;-68
2021/03/11 11:07:21;;;;;;;8.45;4.55;;;10.40;92.70;;;;;;5001511;28;20030;-68
2021/03/11 11:09:48;;;;;;;9.90;4.55;;;10.50;92.00;;;;;;5003866;28;20045;-69
2021/03/11 11:12:16;;;;;;;9.10;4.22;;;10.60;91.70;;;;;;5004459;28;20022;-69
2021/03/11 11:14:47;;;;;;;6.95;4.43;;;10.50;91.40;;;;;;5005698;28;20034;-69
2021/03/11 11:17:13;;;;;;;7.80;3.42;;;10.50;91.70;;;;;;5006204;28;20056;-67
2021/03/11 11:19:42;;;;;;;6.65;3.53;;;10.50;91.40;;;;;;5005428;28;20025;-69
2021/03/11 11:22:09;;;;;;;8.02;3.65;;;10.80;90.50;;;;;;5004525;28;20033;-69
2021/03/11 11:24:39;;;;;;;6.13;2.85;;;11.90;91.60;;;;;;5004624;28;20034;-69
2021/03/11 11:27:06;;;;;;;9.98;2.78;;;12.70;86.40;;;;;;5007300;28;20029;-68
2021/03/11 11:29:32;;;;;;;7.20;2.50;;;12.60;84.00;;;;;;5007404;28;20114;-69
2021/03/11 11:31:58;;;;;;;6.70;2.10;;;12.60;83.90;;;;;;5004064;28;20057;-70
2021/03/11 11:34:23;;;;;;;6.93;2.95;;;12.50;82.80;;;;;;5002652;28;20522;-70
2021/03/11 11:36:49;;;;;;;7.43;3.00;;;12.50;82.80;;;;;;5003937;28;20428;-69
2021/03/11 11:39:18;;;;;;;9.18;2.80;;;12.30;82.40;;;;;;5006240;28;20041;-70
2021/03/11 11:41:44;;;;;;;8.55;2.95;;;12.00;84.60;;;;;;5007973;28;20030;-70
2021/03/11 11:44:11;;;;;;;5.60;2.63;;;12.00;81.70;;;;;;5007735;28;20554;-70
2021/03/11 11:46:37;;;;;;;9.07;2.75;;;11.70;84.90;;;;;;5005646;28;20080;-71
2021/03/11 11:49:06;;;;;;;7.43;2.97;;;11.60;85.50;;;;;;5001394;28;20034;-69
2021/03/11 11:51:31;;;;;;;7.63;2.55;;;11.60;87.10;;;;;;5002743;28;20079;-70
2021/03/11 11:53:57;;;;;;;6.00;2.80;;;11.50;87.20;;;;;;5006824;28;20030;-71
2021/03/11 11:56:23;;;;;;;6.13;2.85;;;11.70;86.30;;;;;;5006612;28;20118;-69
2021/03/11 11:58:49;;;;;;;7.47;2.67;;;12.00;85.60;;;;;;5008049;28;20089;-70
2021/03/11 12:01:16;;;;;;;5.70;2.40;;;12.00;85.10;;;;;;5006826;28;20439;-69
2021/03/11 12:03:42;;;;;;;6.45;2.75;;;12.10;82.30;;;;;;5004828;28;20025;-68
2021/03/11 12:06:08;;;;;;;8.35;2.58;;;12.00;85.90;;;;;;5006804;28;20033;-69
2021/03/11 12:08:34;;;;;;;6.32;2.67;;;12.10;84.00;;;;;;5011860;28;20113;-69
2021/03/11 12:11:02;;;;;;;7.30;2.30;;;12.10;84.50;;;;;;5006421;28;20125;-69
2021/03/11 12:13:28;;;;;;;8.85;2.50;;;12.00;82.90;;;;;;5005541;28;20294;-69
2021/03/11 12:15:54;;;;;;;7.13;2.33;;;12.00;84.50;;;;;;5009158;28;20113;-69
2021/03/11 12:18:19;;;;;;;10.45;2.47;;;11.90;84.50;;;;;;5006400;28;20030;-69
2021/03/11 12:20:48;;;;;;;8.27;2.20;;;11.70;84.10;;;;;;5004346;28;20464;-69
2021/03/11 12:23:17;;;;;;;13.18;2.28;;;11.60;83.00;;;;;;5007897;28;20445;-69
2021/03/11 12:25:44;;;;;;;8.90;2.50;;;11.60;83.00;;;;;;5003579;28;20034;-69
2021/03/11 12:28:10;;;;;;;11.27;2.67;;;11.50;83.60;;;;;;5003554;28;20018;-69
2021/03/11 12:30:36;;;;;;;10.90;2.47;;;11.50;82.60;;;;;;5005364;28;20042;-69
2021/03/11 12:33:02;;;;;;;13.68;3.35;;;11.40;83.60;;;;;;5005624;28;20030;-69
2021/03/11 12:35:28;;;;;;;10.85;2.70;;;11.30;84.60;;;;;;5008050;28;20137;-69
2021/03/11 12:37:55;;;;;;;11.40;2.67;;;11.30;84.80;;;;;;5012375;28;20029;-70
2021/03/11 12:40:22;;;;;;;13.07;2.78;;;11.20;84.70;;;;;;5010731;28;20060;-69
2021/03/11 12:42:49;;;;;;;12.50;2.42;;;11.10;86.00;;;;;;5010621;28;20029;-69
2021/03/11 12:45:17;;;;;;;10.10;2.47;;;11.10;85.40;;;;;;5007767;28;20102;-69
2021/03/11 12:47:43;;;;;;;17.88;3.08;;;11.20;85.40;;;;;;5010040;28;20030;-69